Meteo Giornale » Osservazioni meteo Italia » Torino-Caselle

ore: 18:50 - Osservazioni Meteo Torino-Caselle
Lat. 45° 13' N Lon. 7° 39' E Alt. 301 metri s.l.m.

poco_nuvoloso Europe/Rome

23 °C

Poco Nuvoloso

Temp. 24 Ore

18 °C

26 °C

Est

20.3 Km/h

Dew point 17 °C

Umidità 68 %

Visibilità  10 Km

Il sole sorge alle ore 06:12

Il sole tramonta alle ore 20:58

Data e Ora Cielo e Fenomeni T °C DP °C Um. % Pres. hPa Vis. km Vento km/h
Oggi h: 18:50 poco_nuvoloso Poco Nuvoloso 23 17 68 1007 10 E 20.3
Oggi h: 18:20 nuvoloso Nuvoloso 25 17 61 1007 10 E/SE 13
Oggi h: 17:50 poco_nuvoloso Poco Nuvoloso 25 17 61 1006 10 E/SE 9.3
Oggi h: 17:20 poco_nuvoloso Poco Nuvoloso 25 17 61 1005 10 N 5.5
Oggi h: 16:50 poco_nuvoloso Poco Nuvoloso 23 19 78 1005 10 E 9.3
Oggi h: 15:50 nuvoloso_temporali Temporale nelle Vicinanze Rovescio nelle Vicinanze 23 19 78 1006 10 NO 13
Oggi h: 15:20 nuvoloso_temporali Temporale con Pioggia Debole 21 17 77 1005 3 N 9.3
Oggi h: 14:50 coperto_temporali Temporale 26 17 57 1005 10 E/NE 14.8
Oggi h: 14:20 nuvoloso Nuvoloso 25 15 53 1005 10 N 7.4
Oggi h: 13:50 nuvoloso Nuvoloso 25 17 61 1005 10 N 3.7
Oggi h: 13:20 nuvoloso Nuvoloso 25 18 65 1005 10 E 7.4
Oggi h: 12:50 nuvoloso Nuvoloso 25 17 61 1006 10 S/SE 9.3
Oggi h: 12:20 nuvoloso Nuvoloso 25 18 65 1006 10 N 7.4
Oggi h: 11:50 nuvoloso Nuvoloso 23 17 68 1006 10 N 5.5
Oggi h: 11:20 nuvoloso Nuvoloso 24 18 69 1006 10 N 3.7
Oggi h: 10:50 nuvoloso Nuvoloso 23 18 73 1006 10 N 3.7
Oggi h: 10:20 molto_nuvoloso Molto Nuvoloso 21 18 82 1006 10 N 3.7
Oggi h: 09:50 molto_nuvoloso Molto Nuvoloso 21 19 88 1006 10 N 3.7
Oggi h: 09:20 molto_nuvoloso Molto Nuvoloso 20 18 88 1006 8 N 3.7
Oggi h: 08:50 molto_nuvoloso Molto Nuvoloso 20 18 88 1006 10 N 3.7
Oggi h: 08:20 molto_nuvoloso Molto Nuvoloso 19 18 93 1005 8 N 3.7
Oggi h: 07:50 molto_nuvoloso Molto Nuvoloso 19 18 93 1005 8 N 5.5
Oggi h: 07:20 molto_nuvoloso Molto Nuvoloso 18 18 100 1005 8 N 3.7
Oggi h: 06:50 nuvoloso Nuvoloso 18 18 100 1005 10 N 5.5
Oggi h: 06:20 nuvoloso Nuvoloso 18 18 100 1005 10 N 5.5
Oggi h: 05:50 nuvoloso Nuvoloso 19 18 93 1006 10 N 3.7
Oggi h: 05:20 molto_nuvoloso Molto Nuvoloso 19 18 93 1006 10 N 3.7
Oggi h: 04:50 molto_nuvoloso Molto Nuvoloso 19 18 93 1006 10 N 5.5
Oggi h: 04:20 coperto_pioggia Pioggia Debole 19 18 93 1006 10 N 3.7
Oggi h: 03:50 nuvoloso Nuvoloso 19 18 93 1007 8 N 5.5
Oggi h: 03:20 nuvoloso Nuvoloso 18 18 100 1007 8 N 9.3
Oggi h: 02:50 poco_nuvoloso Poco Nuvoloso 19 18 93 1007 8 N 3.7
Oggi h: 02:20 nuvoloso Nuvoloso 19 19 100 1007 8 N 3.7
Oggi h: 01:50 molto_nuvoloso Molto Nuvoloso 19 19 100 1007 10 N 3.7
Oggi h: 01:20 poco_nuvoloso Poco Nuvoloso 19 19 100 1007 10 N 9.3
Oggi h: 00:50 nuvoloso Nuvoloso 19 19 100 1008 10 O/NO 7.4
Oggi h: 00:20 nuvoloso Nuvoloso 19 19 100 1007 10 E/SE 9.3
Ieri h: 23:50 nuvoloso Nuvoloso 19 19 100 1007 10 E 9.3
Ieri h: 23:20 coperto_pioggia Pioggia Debole 20 19 93 1007 10 N/NO 11.1
Ieri h: 22:20 nuvoloso_temporali Temporale con Pioggia 19 19 100 1007 8 N 18.5
Ieri h: 21:50 coperto_pioggia Pioggia Debole Temporale nelle Vicinanze 20 19 93 1008 10 N 3.7
Ieri h: 21:20 coperto_pioggia Pioggia Debole 20 19 93 1008 10 N 1.8
Ieri h: 20:50 coperto_pioggia Pioggia Debole Temporale nelle Vicinanze 20 19 93 1008 8 N 1.8
Ieri h: 20:20 coperto_pioggia Pioggia Debole Temporale nelle Vicinanze 20 19 93 1007 8 N 3.7
Ieri h: 19:50 nuvoloso_piovaschi Debole Rovescio di Pioggia Temporale nelle Vicinanze 20 19 93 1008 10 N 11.1